createdAt,value
2017-10-05T00:00:01.118Z,12.3
2017-10-05T00:01:13.290Z,12.23
2017-10-05T00:02:25.778Z,12.26
2017-10-05T00:03:38.261Z,12.29
2017-10-05T00:04:50.743Z,12.32
2017-10-05T00:06:03.222Z,12.23
2017-10-05T00:07:15.735Z,12.29
2017-10-05T00:08:28.237Z,12.23
2017-10-05T00:09:40.109Z,12.23
2017-10-05T00:10:52.597Z,12.23
2017-10-05T00:12:05.092Z,12.26
2017-10-05T00:13:17.274Z,12.26
2017-10-05T00:14:29.445Z,12.2
2017-10-05T00:15:41.312Z,12.23
2017-10-05T00:16:52.574Z,12.2
2017-10-05T00:18:04.777Z,12.23
2017-10-05T00:19:17.253Z,12.29
2017-10-05T00:20:29.975Z,12.25
2017-10-05T00:21:42.190Z,12.23
2017-10-05T00:22:54.392Z,12.23
2017-10-05T00:24:06.863Z,12.21
2017-10-05T00:25:19.044Z,12.2
2017-10-05T00:26:31.527Z,12.17
2017-10-05T00:27:43.997Z,12.23
2017-10-05T00:28:56.207Z,12.14
2017-10-05T00:30:08.387Z,12.18
2017-10-05T00:31:20.872Z,12.11
2017-10-05T00:32:33.080Z,12.18
2017-10-05T00:33:45.572Z,12.1
2017-10-05T00:34:58.067Z,12.1
2017-10-05T00:36:10.255Z,12.14
2017-10-05T00:37:22.436Z,12.12
2017-10-05T00:38:34.609Z,12.17
2017-10-05T00:39:46.475Z,12.08
2017-10-05T00:40:58.951Z,12.15
2017-10-05T00:42:11.671Z,12.14
2017-10-05T00:43:23.862Z,12.11
2017-10-05T00:44:36.057Z,12.08
2017-10-05T00:45:48.246Z,12.17
2017-10-05T00:47:00.148Z,12.18
2017-10-05T00:48:12.037Z,12.21
2017-10-05T00:49:24.234Z,12.1
2017-10-05T00:50:36.414Z,12.17
2017-10-05T00:51:48.908Z,12.08
2017-10-05T00:53:01.383Z,12.08
2017-10-05T00:54:13.866Z,12.15
2017-10-05T00:55:26.046Z,12.12
2017-10-05T00:56:37.331Z,12.12
2017-10-05T00:57:49.534Z,12.15
2017-10-05T00:59:01.705Z,12.08
2017-10-05T01:00:13.277Z,12.14
2017-10-05T01:01:24.846Z,12.14
2017-10-05T01:02:37.027Z,12.1
2017-10-05T01:03:49.491Z,12.14
2017-10-05T01:05:01.677Z,12.07
2017-10-05T01:06:14.159Z,12.05
2017-10-05T01:07:26.643Z,12.05
2017-10-05T01:08:38.826Z,12.08
2017-10-05T01:09:50.692Z,12.12
2017-10-05T01:11:03.166Z,12.18
2017-10-05T01:12:15.337Z,12.08
2017-10-05T01:13:27.503Z,12.18
2017-10-05T01:14:39.992Z,12.08
2017-10-05T01:15:52.487Z,12.08
2017-10-05T01:17:04.672Z,12.1
2017-10-05T01:18:16.878Z,12.08
2017-10-05T01:19:29.060Z,12.1
2017-10-05T01:20:41.227Z,12.17
2017-10-05T01:21:53.715Z,12.1
2017-10-05T01:23:06.199Z,12.21
2017-10-05T01:24:18.669Z,12.14
2017-10-05T01:25:30.841Z,12.18
2017-10-05T01:26:43.010Z,12.1
2017-10-05T01:27:55.482Z,12.11
2017-10-05T01:29:07.953Z,12.08
2017-10-05T01:30:20.442Z,12.08
2017-10-05T01:31:33.181Z,12.12
2017-10-05T01:32:45.663Z,12.11
2017-10-05T01:33:58.148Z,12.15
2017-10-05T01:35:10.328Z,12.17
2017-10-05T01:36:22.502Z,12.15
2017-10-05T01:37:34.983Z,12.18
2017-10-05T01:38:47.486Z,12.18
2017-10-05T01:39:59.975Z,12.11
2017-10-05T01:41:12.157Z,12.14
2017-10-05T01:42:24.330Z,12.18
2017-10-05T01:43:36.499Z,12.14
2017-10-05T01:44:48.682Z,12.1
2017-10-05T01:46:01.167Z,12.17
2017-10-05T01:47:13.300Z,12.17
2017-10-05T01:48:25.478Z,12.2
2017-10-05T01:49:37.353Z,12.11
2017-10-05T01:50:49.523Z,12.2
2017-10-05T01:52:02.010Z,12.18
2017-10-05T01:53:14.511Z,12.17
2017-10-05T01:54:26.684Z,12.1
2017-10-05T01:55:38.868Z,12.14
2017-10-05T01:56:51.352Z,12.18
2017-10-05T01:58:03.524Z,12.14
2017-10-05T01:59:16.031Z,12.15
2017-10-05T02:00:28.513Z,12.15
2017-10-05T02:01:40.985Z,12.18
2017-10-05T02:02:52.868Z,12.18
2017-10-05T02:04:05.039Z,12.2
2017-10-05T02:05:17.217Z,12.12
2017-10-05T02:06:29.113Z,12.17
2017-10-05T02:07:41.282Z,12.18
2017-10-05T02:08:53.170Z,12.14
2017-10-05T02:10:05.052Z,12.23
2017-10-05T02:11:16.923Z,12.18
2017-10-05T02:12:28.816Z,12.21
2017-10-05T02:13:40.993Z,12.15
2017-10-05T02:14:53.156Z,12.17
2017-10-05T02:16:05.645Z,12.21
2017-10-05T02:17:17.516Z,12.18
2017-10-05T02:18:30.011Z,12.15
2017-10-05T02:19:42.139Z,12.21
2017-10-05T02:20:54.627Z,12.25
2017-10-05T02:22:06.811Z,12.23
2017-10-05T02:23:18.981Z,12.25
2017-10-05T02:24:31.151Z,12.29
2017-10-05T02:25:43.659Z,12.26
2017-10-05T02:26:55.855Z,12.25
2017-10-05T02:28:08.040Z,12.21
2017-10-05T02:29:20.509Z,12.21
2017-10-05T02:30:33.017Z,12.26
2017-10-05T02:31:45.522Z,12.29
2017-10-05T02:32:58.010Z,12.21
2017-10-05T02:34:09.887Z,12.25
2017-10-05T02:35:21.765Z,12.17
2017-10-05T02:36:33.935Z,12.26
2017-10-05T02:37:46.105Z,12.26
2017-10-05T02:38:58.274Z,12.21
2017-10-05T02:40:10.158Z,12.2
2017-10-05T02:41:22.339Z,12.32
2017-10-05T02:42:34.513Z,12.23
2017-10-05T02:43:46.728Z,12.28
2017-10-05T02:44:58.903Z,12.28
2017-10-05T02:46:11.073Z,12.28
2017-10-05T02:47:23.267Z,12.23
2017-10-05T02:48:35.438Z,12.25
2017-10-05T02:49:47.931Z,12.23
2017-10-05T02:51:00.108Z,12.21
2017-10-05T02:52:12.576Z,12.23
2017-10-05T02:53:25.067Z,12.28
2017-10-05T02:54:37.239Z,12.26
2017-10-05T02:55:49.734Z,12.26
2017-10-05T02:57:02.222Z,12.25
2017-10-05T02:58:14.706Z,12.23
2017-10-05T02:59:26.902Z,12.29
2017-10-05T03:00:39.070Z,12.25
2017-10-05T03:01:50.641Z,12.23
2017-10-05T03:03:03.133Z,12.21
2017-10-05T03:04:15.621Z,12.28
2017-10-05T03:05:27.825Z,12.26
2017-10-05T03:06:40.320Z,12.26
2017-10-05T03:07:52.816Z,12.26
2017-10-05T03:09:05.304Z,12.25
2017-10-05T03:10:17.785Z,12.25
2017-10-05T03:11:30.270Z,12.15
2017-10-05T03:12:42.449Z,12.15
2017-10-05T03:13:55.174Z,12.11
2017-10-05T03:15:07.657Z,12.15
2017-10-05T03:16:18.917Z,12.02
2017-10-05T03:17:31.086Z,12.1
2017-10-05T03:18:43.569Z,12.02
2017-10-05T03:19:55.447Z,11.96
2017-10-05T03:21:07.645Z,11.81
2017-10-05T03:22:19.819Z,11.86
2017-10-05T03:23:32.288Z,11.95
2017-10-05T03:24:44.105Z,11.86
2017-10-05T03:25:56.300Z,11.8
2017-10-05T03:27:08.187Z,11.81
2017-10-05T03:28:20.672Z,11.81
2017-10-05T03:29:33.154Z,11.65
2017-10-05T03:30:45.650Z,11.74
2017-10-05T03:31:57.535Z,11.67
2017-10-05T03:33:09.702Z,11.68
2017-10-05T03:34:21.887Z,11.62
2017-10-05T03:35:34.370Z,11.52
2017-10-05T03:36:46.854Z,11.49
2017-10-05T03:37:59.049Z,11.44
2017-10-05T03:39:11.532Z,11.52
2017-10-05T03:40:24.002Z,11.43
2017-10-05T03:41:35.586Z,11.37
2017-10-05T03:42:48.069Z,11.37
2017-10-05T03:44:00.552Z,11.34
2017-10-05T03:45:13.055Z,11.3
2017-10-05T03:46:25.231Z,11.23
2017-10-05T03:47:37.097Z,11.22
2017-10-05T03:48:49.272Z,11.25
2017-10-05T03:50:01.756Z,11.19
2017-10-05T03:51:13.651Z,11.22
2017-10-05T03:52:26.132Z,11.15
2017-10-05T03:53:38.618Z,11.1
2017-10-05T03:54:50.796Z,11.13
2017-10-05T03:56:02.967Z,11.15
2017-10-05T03:57:15.143Z,11.08
2017-10-05T03:58:27.333Z,11.04
2017-10-05T03:59:39.200Z,10.97
2017-10-05T04:00:51.074Z,11.01
2017-10-05T04:02:03.548Z,11.01
2017-10-05T04:03:15.720Z,11.04
2017-10-05T04:04:27.890Z,11.04
2017-10-05T04:05:40.374Z,10.97
2017-10-05T04:06:52.869Z,10.97
2017-10-05T04:08:05.047Z,10.87
2017-10-05T04:09:17.543Z,10.87
2017-10-05T04:10:29.107Z,10.87
2017-10-05T04:11:41.334Z,10.77
2017-10-05T04:12:53.810Z,10.84
2017-10-05T04:14:05.679Z,10.72
2017-10-05T04:15:17.872Z,10.72
2017-10-05T04:16:30.360Z,10.77
2017-10-05T04:17:42.230Z,10.75
2017-10-05T04:18:54.740Z,10.72
2017-10-05T04:20:06.909Z,10.67
2017-10-05T04:21:19.078Z,10.67
2017-10-05T04:22:31.551Z,10.72
2017-10-05T04:23:43.719Z,10.64
2017-10-05T04:24:55.905Z,10.67
2017-10-05T04:26:07.787Z,10.53
2017-10-05T04:27:20.271Z,10.55
2017-10-05T04:28:32.449Z,10.59
2017-10-05T04:29:44.687Z,10.53
2017-10-05T04:30:57.165Z,10.57
2017-10-05T04:32:08.729Z,10.53
2017-10-05T04:33:21.228Z,10.45
2017-10-05T04:34:33.727Z,10.42
2017-10-05T04:35:45.602Z,10.42
2017-10-05T04:36:58.086Z,10.39
2017-10-05T04:38:10.265Z,10.42
2017-10-05T04:39:22.439Z,10.45
2017-10-05T04:40:34.856Z,10.31
2017-10-05T04:41:46.743Z,10.34
2017-10-05T04:42:58.924Z,10.39
2017-10-05T04:44:10.794Z,10.25
2017-10-05T04:45:22.965Z,10.33
2017-10-05T04:46:35.138Z,10.38
2017-10-05T04:47:47.323Z,10.38
2017-10-05T04:48:59.545Z,10.33
2017-10-05T04:50:11.738Z,10.28
2017-10-05T04:51:24.222Z,10.3
2017-10-05T04:52:36.105Z,10.3
2017-10-05T04:53:47.982Z,10.28
2017-10-05T04:55:00.474Z,10.31
2017-10-05T04:56:12.350Z,10.31
2017-10-05T04:57:24.837Z,10.24
2017-10-05T04:58:37.033Z,10.25
2017-10-05T04:59:49.516Z,10.27
2017-10-05T05:01:01.681Z,10.21
2017-10-05T05:02:14.177Z,10.24
2017-10-05T05:03:26.354Z,10.21
2017-10-05T05:04:38.244Z,10.28
2017-10-05T05:05:50.420Z,10.28
2017-10-05T05:07:02.890Z,10.23
2017-10-05T05:08:15.407Z,10.24
2017-10-05T05:09:27.584Z,10.17
2017-10-05T05:10:40.098Z,10.2
2017-10-05T05:11:52.592Z,10.27
2017-10-05T05:13:04.705Z,10.28
2017-10-05T05:14:16.910Z,10.15
2017-10-05T05:15:29.097Z,10.15
2017-10-05T05:16:41.256Z,10.12
2017-10-05T05:17:53.442Z,10.18
2017-10-05T05:19:05.622Z,10.12
2017-10-05T05:20:17.804Z,10.13
2017-10-05T05:21:30.283Z,10.12
2017-10-05T05:22:42.771Z,10.17
2017-10-05T05:23:54.899Z,10.09
2017-10-05T05:25:06.769Z,10.13
2017-10-05T05:26:19.246Z,10.13
2017-10-05T05:27:31.716Z,10.1
2017-10-05T05:28:43.883Z,10.13
2017-10-05T05:29:56.357Z,10.18
2017-10-05T05:31:08.529Z,10.12
2017-10-05T05:32:21.012Z,10.1
2017-10-05T05:33:33.494Z,10.1
2017-10-05T05:34:45.964Z,10.15
2017-10-05T05:35:58.135Z,10.06
2017-10-05T05:37:10.302Z,10.12
2017-10-05T05:38:22.790Z,10.17
2017-10-05T05:39:35.285Z,10.17
2017-10-05T05:40:47.468Z,10.17
2017-10-05T05:41:59.640Z,10.09
2017-10-05T05:43:11.830Z,10.1
2017-10-05T05:44:24.305Z,10.1
2017-10-05T05:45:36.476Z,10.09
2017-10-05T05:46:48.972Z,10.12
2017-10-05T05:48:00.842Z,10.09
2017-10-05T05:49:13.013Z,10.13
2017-10-05T05:50:25.496Z,10.12
2017-10-05T05:51:37.680Z,10.12
2017-10-05T05:52:50.150Z,10.2
2017-10-05T05:54:02.008Z,10.17
2017-10-05T05:55:14.190Z,10.13
2017-10-05T05:56:26.356Z,10.17
2017-10-05T05:57:38.253Z,10.12
2017-10-05T05:58:50.741Z,10.2
2017-10-05T06:00:02.661Z,10.07
2017-10-05T06:01:14.845Z,10.09
2017-10-05T06:02:27.027Z,10.09
2017-10-05T06:03:39.200Z,10.2
2017-10-05T06:04:51.681Z,10.2
2017-10-05T06:06:03.865Z,10.09
2017-10-05T06:07:16.343Z,10.15
2017-10-05T06:08:28.819Z,10.17
2017-10-05T06:09:40.985Z,10.18
2017-10-05T06:10:52.858Z,10.23
2017-10-05T06:12:05.342Z,10.21
2017-10-05T06:13:17.522Z,10.27
2017-10-05T06:14:29.392Z,10.23
2017-10-05T06:15:41.867Z,10.28
2017-10-05T06:16:54.350Z,10.21
2017-10-05T06:18:06.246Z,10.25
2017-10-05T06:19:18.445Z,10.23
2017-10-05T06:20:30.345Z,10.24
2017-10-05T06:21:41.908Z,10.28
2017-10-05T06:22:54.086Z,10.25
2017-10-05T06:24:06.813Z,10.31
2017-10-05T06:25:18.995Z,10.3
2017-10-05T06:26:31.172Z,10.28
2017-10-05T06:27:43.035Z,10.3
2017-10-05T06:28:54.915Z,10.33
2017-10-05T06:30:07.403Z,10.31
2017-10-05T06:31:19.606Z,10.45
2017-10-05T06:32:31.477Z,10.33
2017-10-05T06:33:43.974Z,10.28
2017-10-05T06:34:56.168Z,10.36
2017-10-05T06:36:08.064Z,10.34
2017-10-05T06:37:20.241Z,10.34
2017-10-05T06:38:32.710Z,10.34
2017-10-05T06:39:45.192Z,10.3
2017-10-05T06:40:57.668Z,10.38
2017-10-05T06:42:09.847Z,10.34
2017-10-05T06:43:22.330Z,10.34
2017-10-05T06:44:34.508Z,10.38
2017-10-05T06:45:46.982Z,10.39
2017-10-05T06:46:59.149Z,10.46
2017-10-05T06:48:11.346Z,10.36
2017-10-05T06:49:23.233Z,10.38
2017-10-05T06:50:35.718Z,10.31
2017-10-05T06:51:47.581Z,10.34
2017-10-05T06:53:00.108Z,10.45
2017-10-05T06:54:12.273Z,10.45
2017-10-05T06:55:24.136Z,10.36
2017-10-05T06:56:36.032Z,10.39
2017-10-05T06:57:48.228Z,10.42
2017-10-05T06:59:00.410Z,10.46
2017-10-05T07:00:12.881Z,10.45
2017-10-05T07:01:25.372Z,10.45
2017-10-05T07:02:37.860Z,10.42
2017-10-05T07:03:50.038Z,10.42
2017-10-05T07:05:02.215Z,10.51
2017-10-05T07:06:14.380Z,10.55
2017-10-05T07:07:26.553Z,10.57
2017-10-05T07:08:38.726Z,10.51
2017-10-05T07:09:51.209Z,10.48
2017-10-05T07:11:03.087Z,10.59
2017-10-05T07:12:15.265Z,10.48
2017-10-05T07:13:27.746Z,10.55
2017-10-05T07:14:39.942Z,10.55
2017-10-05T07:15:51.813Z,10.55
2017-10-05T07:17:03.683Z,10.53
2017-10-05T07:18:16.168Z,10.53
2017-10-05T07:19:28.050Z,10.59
2017-10-05T07:20:40.546Z,10.57
2017-10-05T07:21:52.740Z,10.59
2017-10-05T07:23:05.195Z,10.72
2017-10-05T07:24:17.065Z,10.72
2017-10-05T07:25:29.253Z,10.65
2017-10-05T07:26:40.812Z,10.62
2017-10-05T07:27:53.294Z,10.76
2017-10-05T07:29:05.778Z,10.65
2017-10-05T07:30:17.661Z,10.67
2017-10-05T07:31:29.544Z,10.72
2017-10-05T07:32:41.395Z,10.67
2017-10-05T07:33:53.560Z,10.68
2017-10-05T07:35:05.726Z,10.65
2017-10-05T07:36:18.214Z,10.71
2017-10-05T07:37:30.393Z,10.67
2017-10-05T07:38:42.880Z,10.64
2017-10-05T07:39:54.458Z,10.64
2017-10-05T07:41:06.335Z,10.69
2017-10-05T07:42:18.817Z,10.71
2017-10-05T07:43:30.396Z,10.69
2017-10-05T07:44:42.592Z,10.68
2017-10-05T07:45:55.079Z,10.64
2017-10-05T07:47:07.278Z,10.68
2017-10-05T07:48:19.756Z,10.64
2017-10-05T07:49:32.241Z,10.64
2017-10-05T07:50:44.412Z,10.69
2017-10-05T07:51:56.895Z,10.8
2017-10-05T07:53:09.378Z,10.76
2017-10-05T07:54:21.573Z,10.75
2017-10-05T07:55:33.751Z,10.76
2017-10-05T07:56:45.931Z,10.79
2017-10-05T07:57:58.411Z,10.76
2017-10-05T07:59:09.669Z,10.72
2017-10-05T08:00:21.540Z,10.79
2017-10-05T08:01:34.009Z,10.82
2017-10-05T08:02:46.494Z,10.83
2017-10-05T08:03:58.076Z,10.79
2017-10-05T08:05:10.242Z,10.83
2017-10-05T08:06:22.417Z,10.84
2017-10-05T08:07:34.888Z,10.8
2017-10-05T08:08:47.360Z,10.8
2017-10-05T08:09:59.532Z,10.92
2017-10-05T08:11:11.401Z,10.8
2017-10-05T08:12:23.584Z,10.79
2017-10-05T08:13:35.789Z,10.84
2017-10-05T08:14:48.274Z,10.87
2017-10-05T08:16:00.770Z,10.83
2017-10-05T08:17:12.642Z,10.82
2017-10-05T08:18:24.820Z,11.01
2017-10-05T08:19:37.317Z,11
2017-10-05T08:20:49.503Z,11
2017-10-05T08:22:01.987Z,10.92
2017-10-05T08:23:14.219Z,11.01
2017-10-05T08:24:26.399Z,10.89
2017-10-05T08:25:38.287Z,11
2017-10-05T08:26:50.467Z,10.92
2017-10-05T08:28:02.635Z,10.95
2017-10-05T08:29:14.522Z,10.83
2017-10-05T08:30:26.420Z,10.95
2017-10-05T08:31:38.301Z,10.97
2017-10-05T08:32:50.474Z,10.89
2017-10-05T08:34:02.343Z,10.89
2017-10-05T08:35:14.219Z,10.9
2017-10-05T08:36:26.705Z,10.94
2017-10-05T08:37:39.180Z,10.86
2017-10-05T08:38:51.071Z,10.9
2017-10-05T08:40:03.559Z,10.8
2017-10-05T08:41:15.768Z,10.94
2017-10-05T08:42:28.258Z,10.79
2017-10-05T08:43:40.429Z,10.86
2017-10-05T08:44:52.916Z,10.89
2017-10-05T08:46:05.412Z,10.94
2017-10-05T08:47:17.308Z,10.83
2017-10-05T08:48:29.492Z,10.95
2017-10-05T08:49:41.060Z,10.95
2017-10-05T08:50:53.545Z,10.94
2017-10-05T08:52:05.423Z,10.94
2017-10-05T08:53:17.594Z,10.92
2017-10-05T08:54:30.070Z,10.9
2017-10-05T08:55:41.978Z,11.01
2017-10-05T08:56:54.460Z,10.92
2017-10-05T08:58:06.944Z,10.97
2017-10-05T08:59:19.113Z,10.95
2017-10-05T09:00:30.936Z,11.04
2017-10-05T09:01:43.106Z,11.01
2017-10-05T09:02:55.591Z,10.94
2017-10-05T09:04:07.781Z,11.01
2017-10-05T09:05:19.967Z,11.01
2017-10-05T09:06:32.151Z,10.89
2017-10-05T09:07:44.637Z,11
2017-10-05T09:08:56.862Z,10.97
2017-10-05T09:10:08.425Z,10.94
2017-10-05T09:11:20.606Z,11.04
2017-10-05T09:12:33.091Z,10.9
2017-10-05T09:13:45.587Z,10.98
2017-10-05T09:14:58.083Z,11.02
2017-10-05T09:16:10.561Z,10.97
2017-10-05T09:17:22.424Z,10.97
2017-10-05T09:18:34.620Z,11.02
2017-10-05T09:19:46.803Z,11.02
2017-10-05T09:20:58.686Z,10.98
2017-10-05T09:22:10.245Z,11.08
2017-10-05T09:23:22.716Z,11.02
2017-10-05T09:24:34.898Z,11.05
2017-10-05T09:25:47.094Z,11.07
2017-10-05T09:26:58.978Z,11.1
2017-10-05T09:28:11.161Z,11.05
2017-10-05T09:29:23.344Z,11.08
2017-10-05T09:30:35.509Z,11.05
2017-10-05T09:31:47.397Z,11.16
2017-10-05T09:32:59.605Z,11.07
2017-10-05T09:34:11.789Z,11.12
2017-10-05T09:35:24.273Z,11.08
2017-10-05T09:36:35.855Z,11.16
2017-10-05T09:37:48.350Z,11.13
2017-10-05T09:39:00.835Z,11.15
2017-10-05T09:40:13.325Z,11.16
2017-10-05T09:41:25.498Z,11.2
2017-10-05T09:42:37.691Z,11.22
2017-10-05T09:43:50.178Z,11.25
2017-10-05T09:45:02.362Z,11.22
2017-10-05T09:46:14.845Z,11.13
2017-10-05T09:47:27.016Z,11.22
2017-10-05T09:48:39.195Z,11.19
2017-10-05T09:49:51.686Z,11.22
2017-10-05T09:51:04.177Z,11.22
2017-10-05T09:52:16.057Z,11.22
2017-10-05T09:53:28.230Z,11.19
2017-10-05T09:54:40.115Z,11.2
2017-10-05T09:55:51.996Z,11.25
2017-10-05T09:57:04.165Z,11.23
2017-10-05T09:58:16.335Z,11.22
2017-10-05T09:59:28.229Z,11.2
2017-10-05T10:00:40.101Z,11.23
2017-10-05T10:01:51.689Z,11.22
2017-10-05T10:03:04.184Z,11.19
2017-10-05T10:04:15.766Z,11.16
2017-10-05T10:05:28.250Z,11.2
2017-10-05T10:06:40.108Z,11.19
2017-10-05T10:07:52.280Z,11.25
2017-10-05T10:09:04.147Z,11.23
2017-10-05T10:10:15.719Z,11.22
2017-10-05T10:11:27.612Z,11.2
2017-10-05T10:12:39.806Z,11.27
2017-10-05T10:13:51.679Z,11.18
2017-10-05T10:15:03.849Z,11.27
2017-10-05T10:16:16.049Z,11.26
2017-10-05T10:17:28.214Z,11.23
2017-10-05T10:18:40.091Z,11.23
2017-10-05T10:19:52.006Z,11.26
2017-10-05T10:21:04.203Z,11.26
2017-10-05T10:22:16.398Z,11.2
2017-10-05T10:23:28.875Z,11.33
2017-10-05T10:24:41.363Z,11.22
2017-10-05T10:25:53.841Z,11.26
2017-10-05T10:27:05.707Z,11.25
2017-10-05T10:28:18.201Z,11.23
2017-10-05T10:29:30.375Z,11.23
2017-10-05T10:30:42.562Z,11.2
2017-10-05T10:31:55.065Z,11.23
2017-10-05T10:33:06.934Z,11.23
2017-10-05T10:34:19.111Z,11.22
2017-10-05T10:35:31.282Z,11.2
2017-10-05T10:36:43.763Z,11.23
2017-10-05T10:37:56.192Z,11.23
2017-10-05T10:39:08.674Z,11.27
2017-10-05T10:40:20.874Z,11.23
2017-10-05T10:41:33.077Z,11.26
2017-10-05T10:42:45.267Z,11.26
2017-10-05T10:43:57.445Z,11.26
2017-10-05T10:45:09.622Z,11.23
2017-10-05T10:46:21.503Z,11.19
2017-10-05T10:47:33.081Z,11.26
2017-10-05T10:48:45.570Z,11.3
2017-10-05T10:49:57.753Z,11.31
2017-10-05T10:51:09.962Z,11.26
2017-10-05T10:52:22.140Z,11.25
2017-10-05T10:53:34.315Z,11.33
2017-10-05T10:54:46.181Z,11.31
2017-10-05T10:55:58.676Z,11.22
2017-10-05T10:57:11.164Z,11.23
2017-10-05T10:58:23.043Z,11.23
2017-10-05T10:59:35.520Z,11.31
2017-10-05T11:00:47.690Z,11.34
2017-10-05T11:01:59.861Z,11.26
2017-10-05T11:03:12.034Z,11.38
2017-10-05T11:04:24.513Z,11.38
2017-10-05T11:05:36.691Z,11.33
2017-10-05T11:06:48.861Z,11.35
2017-10-05T11:08:01.035Z,11.37
2017-10-05T11:09:12.909Z,11.4
2017-10-05T11:10:25.079Z,11.48
2017-10-05T11:11:37.562Z,11.45
2017-10-05T11:12:50.041Z,11.52
2017-10-05T11:14:02.218Z,11.44
2017-10-05T11:15:14.108Z,11.48
2017-10-05T11:16:26.278Z,11.41
2017-10-05T11:17:38.153Z,11.41
2017-10-05T11:18:50.336Z,11.52
2017-10-05T11:20:02.515Z,11.49
2017-10-05T11:21:14.629Z,11.53
2017-10-05T11:22:26.810Z,11.53
2017-10-05T11:23:38.676Z,11.58
2017-10-05T11:24:51.153Z,11.65
2017-10-05T11:26:03.661Z,11.59
2017-10-05T11:27:15.538Z,11.6
2017-10-05T11:28:27.414Z,11.71
2017-10-05T11:29:39.305Z,11.71
2017-10-05T11:30:51.793Z,11.74
2017-10-05T11:32:03.678Z,11.65
2017-10-05T11:33:15.867Z,11.67
2017-10-05T11:34:28.055Z,11.71
2017-10-05T11:35:39.933Z,11.77
2017-10-05T11:36:52.110Z,11.71
2017-10-05T11:38:03.979Z,11.77
2017-10-05T11:39:15.850Z,11.83
2017-10-05T11:40:28.340Z,11.83
2017-10-05T11:41:40.536Z,11.85
2017-10-05T11:42:52.407Z,11.89
2017-10-05T11:44:03.677Z,11.96
2017-10-05T11:45:16.157Z,11.95
2017-10-05T11:46:28.025Z,11.95
2017-10-05T11:47:40.190Z,12
2017-10-05T11:48:52.686Z,11.97
2017-10-05T11:50:04.861Z,12.02
2017-10-05T11:51:16.725Z,12.02
2017-10-05T11:52:28.914Z,12.1
2017-10-05T11:53:41.110Z,12.15
2017-10-05T11:54:53.314Z,12.08
2017-10-05T11:56:05.203Z,12.17
2017-10-05T11:57:16.780Z,12.35
2017-10-05T11:58:29.367Z,12.32
2017-10-05T11:59:40.638Z,12.44
2017-10-05T12:00:52.817Z,12.39
2017-10-05T12:02:05.017Z,12.55
2017-10-05T12:03:17.208Z,12.69
2017-10-05T12:04:29.404Z,12.8
2017-10-05T12:05:41.904Z,12.81
2017-10-05T12:06:53.495Z,12.94
2017-10-05T12:08:05.716Z,13.01
2017-10-05T12:09:17.591Z,12.95
2017-10-05T12:10:29.175Z,13.13
2017-10-05T12:11:41.670Z,13.08
2017-10-05T12:12:53.866Z,13.09
2017-10-05T12:14:06.369Z,13.16
2017-10-05T12:15:18.856Z,13.16
2017-10-05T12:16:31.353Z,13.28
2017-10-05T12:17:43.548Z,13.24
2017-10-05T12:18:56.044Z,13.3
2017-10-05T12:20:08.239Z,13.39
2017-10-05T12:21:20.735Z,13.47
2017-10-05T12:22:32.614Z,13.47
2017-10-05T12:23:45.110Z,13.52
2017-10-05T12:24:57.604Z,13.58
2017-10-05T12:26:10.101Z,13.6
2017-10-05T12:27:21.995Z,13.57
2017-10-05T12:28:34.484Z,13.62
2017-10-05T12:29:46.365Z,13.62
2017-10-05T12:30:58.538Z,13.62
2017-10-05T12:32:10.708Z,13.62
2017-10-05T12:33:22.900Z,13.67
2017-10-05T12:34:35.387Z,13.6
2017-10-05T12:35:47.283Z,13.61
2017-10-05T12:36:59.462Z,13.67
2017-10-05T12:38:11.632Z,13.61
2017-10-05T12:39:24.131Z,13.55
2017-10-05T12:40:36.616Z,13.55
2017-10-05T12:41:48.794Z,13.64
2017-10-05T12:43:00.982Z,13.55
2017-10-05T12:44:12.862Z,13.55
2017-10-05T12:45:25.049Z,13.57
2017-10-05T12:46:37.545Z,13.55
2017-10-05T12:47:49.726Z,13.47
2017-10-05T12:49:02.200Z,13.55
2017-10-05T12:50:14.682Z,13.5
2017-10-05T12:51:26.877Z,13.49
2017-10-05T12:52:39.054Z,13.45
2017-10-05T12:53:50.943Z,13.46
2017-10-05T12:55:02.822Z,13.43
2017-10-05T12:56:14.397Z,13.43
2017-10-05T12:57:26.280Z,13.39
2017-10-05T12:58:38.159Z,13.45
2017-10-05T12:59:50.335Z,13.37
2017-10-05T13:01:02.817Z,13.33
2017-10-05T13:02:14.396Z,13.3
2017-10-05T13:03:26.268Z,13.39
2017-10-05T13:04:37.830Z,13.27
2017-10-05T13:05:50.333Z,13.2
2017-10-05T13:07:02.806Z,13.21
2017-10-05T13:08:14.379Z,13.26
2017-10-05T13:09:26.549Z,13.27
2017-10-05T13:10:39.039Z,13.26
2017-10-05T13:11:51.538Z,13.21
2017-10-05T13:13:03.712Z,13.2
2017-10-05T13:14:15.882Z,13.26
2017-10-05T13:15:28.395Z,13.2
2017-10-05T13:16:40.268Z,13.23
2017-10-05T13:17:52.756Z,13.24
2017-10-05T13:19:04.613Z,13.23
2017-10-05T13:20:16.806Z,13.26
2017-10-05T13:21:29.019Z,13.28
2017-10-05T13:22:41.538Z,13.19
2017-10-05T13:23:54.048Z,13.24
2017-10-05T13:25:04.988Z,13.27
2017-10-05T13:26:16.863Z,13.27
2017-10-05T13:27:29.032Z,13.21
2017-10-05T13:28:41.506Z,13.33
2017-10-05T13:29:53.388Z,13.23
2017-10-05T13:31:05.277Z,13.3
2017-10-05T13:32:17.780Z,13.33
2017-10-05T13:33:30.275Z,13.37
2017-10-05T13:34:42.470Z,13.37
2017-10-05T13:35:54.666Z,13.39
2017-10-05T13:37:06.537Z,13.42
2017-10-05T13:38:19.033Z,13.43
2017-10-05T13:39:31.214Z,13.49
2017-10-05T13:40:43.406Z,13.47
2017-10-05T13:41:55.895Z,13.47
2017-10-05T13:43:08.390Z,13.52
2017-10-05T13:44:20.574Z,13.5
2017-10-05T13:45:32.488Z,13.58
2017-10-05T13:46:44.677Z,13.5
2017-10-05T13:47:57.383Z,13.57
2017-10-05T13:49:09.595Z,13.55
2017-10-05T13:50:22.097Z,13.61
2017-10-05T13:51:34.617Z,13.55
2017-10-05T13:52:46.205Z,13.6
2017-10-05T13:53:58.708Z,13.52
2017-10-05T13:55:10.901Z,13.55
2017-10-05T13:56:22.781Z,13.5
2017-10-05T13:57:34.949Z,13.54
2017-10-05T13:58:47.117Z,13.45
2017-10-05T13:59:58.989Z,13.43
2017-10-05T14:01:11.175Z,13.4
2017-10-05T14:02:23.078Z,13.2
2017-10-05T14:03:34.952Z,13.16
2017-10-05T14:04:46.825Z,13.16
2017-10-05T14:05:59.007Z,13.03
2017-10-05T14:07:11.192Z,12.98
2017-10-05T14:08:23.057Z,12.78
2017-10-05T14:09:35.533Z,12.78
2017-10-05T14:10:47.440Z,12.72
2017-10-05T14:11:59.917Z,12.62
2017-10-05T14:13:12.106Z,12.54
2017-10-05T14:14:24.285Z,12.4
2017-10-05T14:15:36.156Z,12.3
2017-10-05T14:16:48.643Z,12.2
2017-10-05T14:18:01.126Z,12.08
2017-10-05T14:19:13.296Z,11.99
2017-10-05T14:20:25.782Z,11.93
2017-10-05T14:21:37.962Z,11.91
2017-10-05T14:22:49.830Z,11.8
2017-10-05T14:24:02.305Z,11.77
2017-10-05T14:25:14.488Z,11.65
2017-10-05T14:26:26.983Z,11.73
2017-10-05T14:27:38.862Z,11.65
2017-10-05T14:28:50.750Z,11.68
2017-10-05T14:30:02.946Z,11.59
2017-10-05T14:31:14.840Z,11.49
2017-10-05T14:32:26.420Z,11.45
2017-10-05T14:33:38.616Z,11.52
2017-10-05T14:34:50.792Z,11.37
2017-10-05T14:36:02.963Z,11.31
2017-10-05T14:37:15.170Z,11.23
2017-10-05T14:38:27.052Z,11.19
2017-10-05T14:39:39.546Z,11.19
2017-10-05T14:40:51.739Z,11.15
2017-10-05T14:42:03.610Z,11
2017-10-05T14:43:15.487Z,10.98
2017-10-05T14:44:27.976Z,10.89
2017-10-05T14:45:40.165Z,10.89
2017-10-05T14:46:52.646Z,10.9
2017-10-05T14:48:05.130Z,10.86
2017-10-05T14:49:17.009Z,10.77
2017-10-05T14:50:28.872Z,10.77
2017-10-05T14:51:41.367Z,10.77
2017-10-05T14:52:53.546Z,10.77
2017-10-05T14:54:06.022Z,10.69
2017-10-05T14:55:18.204Z,10.67
2017-10-05T14:56:30.375Z,10.65
2017-10-05T14:57:42.554Z,10.72
2017-10-05T14:58:55.030Z,10.68
2017-10-05T15:00:07.536Z,10.53
2017-10-05T15:01:19.420Z,10.49
2017-10-05T15:02:31.291Z,10.39
2017-10-05T15:03:43.760Z,10.46
2017-10-05T15:04:56.232Z,10.3
2017-10-05T15:06:08.703Z,10.33
2017-10-05T15:07:20.872Z,10.24
2017-10-05T15:08:32.440Z,10.33
2017-10-05T15:09:44.310Z,10.28
2017-10-05T15:10:56.786Z,10.23
2017-10-05T15:12:09.257Z,10.15
2017-10-05T15:13:21.727Z,10.12
2017-10-05T15:14:33.895Z,10.12
2017-10-05T15:15:46.065Z,10.09
2017-10-05T15:16:58.538Z,10.07
2017-10-05T15:18:10.733Z,10.02
2017-10-05T15:19:22.920Z,9.97
2017-10-05T15:20:35.141Z,9.97
2017-10-05T15:21:47.637Z,9.94
2017-10-05T15:23:00.130Z,9.9
2017-10-05T15:24:12.009Z,9.84
2017-10-05T15:25:24.179Z,9.82
2017-10-05T15:26:36.369Z,9.73
2017-10-05T15:27:48.848Z,9.74
2017-10-05T15:29:01.333Z,9.72
2017-10-05T15:30:13.513Z,9.7
2017-10-05T15:31:26.010Z,9.72
2017-10-05T15:32:38.177Z,9.73
2017-10-05T15:33:50.351Z,9.73